Time;durP1;ratioP1;P1;durP2;ratioP2;P2;SDS_P1;SDS_P2;PMS_P1;PMS_P2;Temp;Humidity;BMP_temperature;BMP_pressure;BME280_temperature;BME280_humidity;BME280_pressure;Samples;Min_cycle;Max_cycle;Signal;HPM_P1;HPM_P2
2021/09/19 00:02:04;;;;;;;6.93;1.90;;;16.00;83.30;;;;;;5109507;28;20036;-75
2021/09/19 00:04:30;;;;;;;5.20;1.40;;;16.00;83.10;;;;;;5074550;28;20073;-76
2021/09/19 00:06:56;;;;;;;6.22;1.33;;;16.00;83.10;;;;;;5109268;28;20216;-77
2021/09/19 00:09:22;;;;;;;4.57;1.50;;;16.00;83.10;;;;;;5074279;28;20130;-76
2021/09/19 00:11:47;;;;;;;2.97;1.15;;;16.00;83.10;;;;;;5109423;28;20023;-77
2021/09/19 00:14:15;;;;;;;5.65;1.00;;;16.00;83.20;;;;;;5109408;28;20026;-76
2021/09/19 00:16:42;;;;;;;4.75;1.50;;;16.00;83.30;;;;;;5109191;28;20036;-75
2021/09/19 00:19:08;;;;;;;3.65;1.30;;;16.00;83.40;;;;;;5109317;28;20030;-77
2021/09/19 00:21:34;;;;;;;5.63;1.50;;;16.00;83.50;;;;;;5090952;28;20051;-76
2021/09/19 00:24:00;;;;;;;5.68;1.30;;;16.00;83.70;;;;;;5109378;28;20532;-75
2021/09/19 00:26:26;;;;;;;4.80;1.40;;;16.00;83.80;;;;;;5109230;28;20032;-75
2021/09/19 00:28:51;;;;;;;7.72;1.40;;;16.00;83.80;;;;;;5109137;28;20023;-76
2021/09/19 00:31:17;;;;;;;8.23;1.50;;;16.10;83.90;;;;;;5074014;28;20367;-76
2021/09/19 00:33:43;;;;;;;5.50;1.70;;;16.10;83.90;;;;;;5109390;28;20036;-76
2021/09/19 00:36:09;;;;;;;6.43;1.35;;;16.10;83.90;;;;;;5109521;28;20114;-77
2021/09/19 00:38:35;;;;;;;8.15;1.58;;;16.10;83.90;;;;;;5109210;28;20031;-75
2021/09/19 00:41:00;;;;;;;3.47;1.30;;;16.20;84.00;;;;;;5108751;28;20046;-75
2021/09/19 00:43:26;;;;;;;11.02;2.50;;;16.20;84.00;;;;;;5090514;28;20457;-77
2021/09/19 00:45:52;;;;;;;6.45;1.25;;;16.20;84.00;;;;;;5108718;28;20040;-78
2021/09/19 00:48:18;;;;;;;7.65;1.48;;;16.30;84.60;;;;;;5108863;28;20450;-75
2021/09/19 00:50:43;;;;;;;7.05;1.50;;;16.30;84.20;;;;;;5108706;28;20031;-74
2021/09/19 00:53:11;;;;;;;5.63;1.17;;;16.30;84.10;;;;;;5108635;28;20031;-76
2021/09/19 00:55:38;;;;;;;5.85;1.98;;;16.30;84.10;;;;;;5108470;28;20047;-77
2021/09/19 00:58:10;;;;;;;8.57;1.30;;;16.30;84.20;;;;;;5089603;28;20114;-75
2021/09/19 01:00:38;;;;;;;8.13;1.40;;;16.30;84.40;;;;;;5090224;28;20035;-76
2021/09/19 01:03:04;;;;;;;4.40;1.40;;;16.40;84.40;;;;;;5090879;28;20072;-76
2021/09/19 01:05:30;;;;;;;;;;;16.40;84.50;;;;;;5108891;28;20203;-77
2021/09/19 01:07:57;;;;;;;5.80;1.90;;;16.40;85.00;;;;;;5108699;28;19903;-77
2021/09/19 01:10:25;;;;;;;6.75;1.50;;;16.40;84.40;;;;;;5090481;28;20108;-75
2021/09/19 01:12:53;;;;;;;4.95;1.55;;;16.50;84.50;;;;;;5108323;28;20482;-77
2021/09/19 01:15:20;;;;;;;4.43;1.20;;;16.50;84.80;;;;;;5108261;28;20028;-75
2021/09/19 01:17:46;;;;;;;6.30;1.60;;;16.50;84.80;;;;;;5090069;28;20028;-77
2021/09/19 01:20:15;;;;;;;;;;;16.50;84.90;;;;;;5090548;28;20036;-75
2021/09/19 01:22:44;;;;;;;6.55;1.50;;;16.50;84.90;;;;;;5108252;28;19912;-76
2021/09/19 01:25:13;;;;;;;5.22;1.15;;;16.50;84.80;;;;;;5108044;28;20085;-77
2021/09/19 01:27:39;;;;;;;4.90;1.38;;;16.50;84.90;;;;;;5108242;28;20020;-77
2021/09/19 01:30:09;;;;;;;6.93;1.25;;;16.50;85.10;;;;;;5108054;28;20037;-77
2021/09/19 01:32:39;;;;;;;9.70;1.38;;;16.50;85.20;;;;;;5089845;28;20432;-75
2021/09/19 01:35:05;;;;;;;10.35;1.40;;;16.50;85.40;;;;;;5108651;28;20151;-76
2021/09/19 01:37:31;;;;;;;7.68;1.33;;;16.60;85.60;;;;;;5107803;28;20034;-75
2021/09/19 01:39:57;;;;;;;6.50;1.33;;;16.60;85.70;;;;;;5072530;28;20127;-76
2021/09/19 01:42:26;;;;;;;4.75;1.10;;;16.60;85.90;;;;;;5107946;28;20063;-75
2021/09/19 01:44:52;;;;;;;9.30;1.67;;;16.60;86.10;;;;;;5089613;28;20031;-76
2021/09/19 01:47:18;;;;;;;6.75;1.33;;;16.60;86.30;;;;;;5107759;28;20053;-75
2021/09/19 01:49:48;;;;;;;5.72;1.65;;;16.60;86.40;;;;;;5107859;28;20051;-76
2021/09/19 01:52:15;;;;;;;6.45;2.10;;;16.60;86.60;;;;;;5089394;28;20405;-76
2021/09/19 01:54:41;;;;;;;9.88;1.60;;;16.60;86.90;;;;;;5107762;28;20541;-76
2021/09/19 01:57:07;;;;;;;5.75;1.55;;;16.60;87.20;;;;;;5107771;28;20102;-75
2021/09/19 01:59:34;;;;;;;7.88;1.50;;;16.50;87.50;;;;;;5089089;28;20478;-76
2021/09/19 02:01:59;;;;;;;7.65;1.60;;;16.50;87.90;;;;;;5107340;28;20056;-75
2021/09/19 02:04:25;;;;;;;5.18;1.50;;;16.50;88.30;;;;;;5107598;28;20051;-77
2021/09/19 02:06:51;;;;;;;10.57;2.08;;;16.40;88.60;;;;;;5072368;28;20043;-76
2021/09/19 02:09:16;;;;;;;6.78;1.50;;;16.40;89.00;;;;;;5107473;28;20066;-75
2021/09/19 02:11:42;;;;;;;8.23;1.52;;;16.40;89.30;;;;;;5076353;28;20045;-77
2021/09/19 02:14:08;;;;;;;13.07;1.88;;;16.40;89.60;;;;;;5111824;28;20043;-78
2021/09/19 02:16:33;;;;;;;7.55;1.67;;;16.40;89.90;;;;;;5093311;28;20043;-76
2021/09/19 02:18:59;;;;;;;8.98;1.80;;;16.30;90.10;;;;;;5093135;28;20077;-77
2021/09/19 02:21:26;;;;;;;6.03;1.65;;;16.30;90.30;;;;;;5111536;28;20447;-74
2021/09/19 02:23:52;;;;;;;9.45;2.10;;;16.30;90.40;;;;;;5111533;28;20096;-75
2021/09/19 02:26:19;;;;;;;5.85;1.80;;;16.30;90.60;;;;;;5093142;28;20031;-77
2021/09/19 02:28:44;;;;;;;9.07;1.77;;;16.20;90.70;;;;;;5111311;28;20027;-76
2021/09/19 02:31:10;;;;;;;5.65;1.50;;;16.20;90.90;;;;;;5111719;28;20049;-78
2021/09/19 02:33:36;;;;;;;6.15;1.52;;;16.30;91.00;;;;;;5111430;28;20067;-77
2021/09/19 02:36:02;;;;;;;7.07;1.40;;;16.20;91.10;;;;;;5111285;28;20032;-75
2021/09/19 02:38:28;;;;;;;6.55;1.55;;;16.30;91.20;;;;;;5093349;28;20409;-75
2021/09/19 02:40:55;;;;;;;5.18;1.30;;;16.30;91.30;;;;;;5111508;28;20027;-77
2021/09/19 02:43:22;;;;;;;8.30;1.80;;;16.30;91.40;;;;;;5092991;28;20041;-77
2021/09/19 02:45:50;;;;;;;4.50;1.60;;;16.20;91.50;;;;;;5111303;28;20023;-76
2021/09/19 02:48:15;;;;;;;4.75;1.58;;;16.20;91.60;;;;;;5111140;28;20019;-76
2021/09/19 02:50:41;;;;;;;7.25;1.90;;;16.10;91.60;;;;;;5111144;28;20016;-77
2021/09/19 02:53:07;;;;;;;6.88;1.65;;;16.00;91.70;;;;;;5111391;28;20020;-76
2021/09/19 02:55:33;;;;;;;6.82;1.75;;;16.00;91.90;;;;;;5092561;28;20032;-76
2021/09/19 02:57:58;;;;;;;7.25;2.50;;;16.00;92.00;;;;;;5093050;28;20546;-76
2021/09/19 03:00:24;;;;;;;4.70;1.60;;;15.90;92.10;;;;;;5092591;28;20023;-76
2021/09/19 03:02:51;;;;;;;7.30;1.50;;;15.90;92.20;;;;;;5092479;28;20051;-76
2021/09/19 03:05:17;;;;;;;8.30;1.60;;;15.90;92.40;;;;;;5110506;28;20023;-77
2021/09/19 03:07:44;;;;;;;6.65;1.75;;;15.90;92.40;;;;;;5110631;28;20391;-76
2021/09/19 03:10:12;;;;;;;7.97;1.95;;;15.90;92.50;;;;;;5092589;28;20123;-77
2021/09/19 03:12:38;;;;;;;9.35;2.40;;;15.80;92.50;;;;;;5110553;28;20498;-75
2021/09/19 03:15:04;;;;;;;;;;;15.70;92.50;;;;;;5111029;28;20597;-76
2021/09/19 03:17:29;;;;;;;7.68;1.60;;;15.60;92.50;;;;;;5092160;28;19920;-75
2021/09/19 03:19:55;;;;;;;5.90;1.88;;;15.50;92.50;;;;;;5110329;28;20038;-76
2021/09/19 03:22:21;;;;;;;5.55;1.60;;;15.40;92.70;;;;;;5090821;28;20065;-76
2021/09/19 03:24:47;;;;;;;6.53;1.95;;;15.40;92.90;;;;;;5110162;28;20019;-77
2021/09/19 03:27:14;;;;;;;6.65;2.13;;;15.30;93.00;;;;;;5110585;28;20028;-75
2021/09/19 03:29:40;;;;;;;7.40;1.70;;;15.30;93.20;;;;;;5110508;28;20090;-76
2021/09/19 03:32:06;;;;;;;3.65;1.30;;;15.40;93.30;;;;;;5110228;28;20099;-77
2021/09/19 03:34:34;;;;;;;4.25;1.40;;;15.40;93.40;;;;;;5110283;28;20040;-76
2021/09/19 03:37:00;;;;;;;5.40;1.65;;;15.50;93.40;;;;;;5110236;28;20172;-76
2021/09/19 03:39:26;;;;;;;7.00;1.48;;;15.50;93.40;;;;;;5091709;28;20390;-76
2021/09/19 03:41:52;;;;;;;6.95;2.08;;;15.60;93.40;;;;;;5110123;28;20023;-75
2021/09/19 03:44:18;;;;;;;5.05;1.90;;;15.60;93.40;;;;;;5075041;28;20036;-74
2021/09/19 03:46:44;;;;;;;8.65;2.47;;;15.60;93.30;;;;;;5109975;28;20034;-74
2021/09/19 03:49:09;;;;;;;7.22;2.70;;;15.60;93.30;;;;;;5109865;28;20032;-78
2021/09/19 03:51:35;;;;;;;6.93;2.40;;;15.50;93.40;;;;;;5091577;28;20548;-77
2021/09/19 03:54:01;;;;;;;5.30;2.33;;;15.60;93.40;;;;;;5091577;28;20047;-76
2021/09/19 03:56:26;;;;;;;4.50;2.20;;;15.60;93.40;;;;;;5110022;28;20038;-76
2021/09/19 03:58:52;;;;;;;4.90;2.60;;;15.60;93.40;;;;;;5109611;28;20364;-78
2021/09/19 04:01:18;;;;;;;6.18;2.40;;;15.60;93.40;;;;;;5091463;28;20089;-76
2021/09/19 04:03:43;;;;;;;6.82;2.50;;;15.50;93.40;;;;;;5091179;28;20401;-76
2021/09/19 04:06:09;;;;;;;5.85;2.50;;;15.50;93.40;;;;;;5091112;28;20048;-77
2021/09/19 04:08:35;;;;;;;7.53;2.17;;;15.40;93.30;;;;;;5109447;28;20466;-77
2021/09/19 04:11:01;;;;;;;5.30;1.90;;;15.40;93.40;;;;;;5109320;28;20539;-77
2021/09/19 04:13:26;;;;;;;5.15;2.50;;;15.30;93.40;;;;;;5091265;28;20081;-77
2021/09/19 04:15:52;;;;;;;8.23;2.35;;;15.30;93.50;;;;;;5109488;28;20048;-76
2021/09/19 04:18:18;;;;;;;6.35;2.67;;;15.30;93.50;;;;;;5109614;28;20036;-78
2021/09/19 04:20:44;;;;;;;4.20;2.17;;;15.30;93.50;;;;;;5109558;28;20416;-76
2021/09/19 04:23:10;;;;;;;6.20;2.38;;;15.30;93.50;;;;;;5109293;28;20059;-76
2021/09/19 04:25:36;;;;;;;7.28;2.20;;;15.30;93.50;;;;;;5090672;28;20461;-76
2021/09/19 04:28:02;;;;;;;4.60;2.35;;;15.30;93.50;;;;;;5109313;28;20111;-76
2021/09/19 04:30:28;;;;;;;5.22;2.35;;;15.30;93.60;;;;;;5090749;28;20019;-75
2021/09/19 04:32:54;;;;;;;5.32;2.28;;;15.30;93.60;;;;;;5108823;28;20035;-77
2021/09/19 04:35:20;;;;;;;7.38;2.30;;;15.30;93.80;;;;;;5090700;28;20523;-75
2021/09/19 04:37:45;;;;;;;7.20;2.30;;;15.30;93.60;;;;;;5108946;28;20083;-75
2021/09/19 04:40:12;;;;;;;6.07;2.00;;;15.40;93.60;;;;;;5108977;28;20112;-74
2021/09/19 04:42:38;;;;;;;8.27;1.98;;;15.40;93.60;;;;;;5090835;28;20169;-77
2021/09/19 04:45:07;;;;;;;7.38;1.70;;;15.40;93.50;;;;;;5090464;28;20081;-75
2021/09/19 04:47:33;;;;;;;7.35;2.47;;;15.40;93.50;;;;;;5108678;28;20112;-76
2021/09/19 04:49:59;;;;;;;6.00;2.13;;;15.50;93.50;;;;;;5109126;28;20047;-77
2021/09/19 04:52:24;;;;;;;7.43;2.20;;;15.50;93.50;;;;;;5090704;28;20042;-75
2021/09/19 04:54:50;;;;;;;8.57;2.60;;;15.50;93.50;;;;;;5108781;28;20038;-76
2021/09/19 04:57:16;;;;;;;6.20;2.45;;;15.50;93.50;;;;;;5108614;28;20030;-76
2021/09/19 04:59:42;;;;;;;7.00;2.45;;;15.60;93.40;;;;;;5108478;28;20094;-76
2021/09/19 05:02:08;;;;;;;5.32;2.47;;;15.60;93.40;;;;;;5090448;28;20038;-77
2021/09/19 05:04:33;;;;;;;5.38;2.50;;;15.60;93.40;;;;;;5090305;28;20084;-75
2021/09/19 05:06:59;;;;;;;6.65;2.45;;;15.60;93.40;;;;;;5089927;28;20602;-76
2021/09/19 05:09:25;;;;;;;10.55;3.20;;;15.60;93.30;;;;;;5108214;28;20069;-76
2021/09/19 05:11:51;;;;;;;5.38;2.38;;;15.60;93.30;;;;;;5090132;28;20080;-75
2021/09/19 05:14:16;;;;;;;8.25;2.90;;;15.60;93.30;;;;;;5073144;28;20031;-75
2021/09/19 05:16:42;;;;;;;7.43;2.72;;;15.60;93.30;;;;;;5090063;28;20634;-77
2021/09/19 05:19:08;;;;;;;7.47;3.10;;;15.50;93.20;;;;;;5108142;28;20044;-75
2021/09/19 05:21:33;;;;;;;7.38;2.97;;;15.50;93.30;;;;;;5090305;28;20024;-76
2021/09/19 05:24:00;;;;;;;7.53;2.80;;;15.50;93.30;;;;;;5108222;28;20102;-75
2021/09/19 05:26:25;;;;;;;;;;;15.50;93.40;;;;;;5073521;28;20405;-74
2021/09/19 05:28:51;;;;;;;6.45;2.25;;;15.50;93.30;;;;;;5107912;28;19908;-76
2021/09/19 05:31:17;;;;;;;7.97;2.67;;;15.50;93.20;;;;;;5108082;28;20030;-76
2021/09/19 05:33:44;;;;;;;7.75;2.58;;;15.50;93.30;;;;;;5107963;28;20032;-77
2021/09/19 05:36:10;;;;;;;9.52;2.38;;;15.50;93.40;;;;;;5089684;28;20430;-76
2021/09/19 05:38:35;;;;;;;12.50;3.58;;;15.40;93.40;;;;;;5108040;28;20038;-75
2021/09/19 05:41:01;;;;;;;9.48;2.70;;;15.40;93.40;;;;;;5107801;28;20439;-78
2021/09/19 05:43:27;;;;;;;8.50;2.47;;;15.50;93.50;;;;;;5107952;28;20038;-76
2021/09/19 05:45:52;;;;;;;9.88;2.88;;;15.40;93.40;;;;;;5110473;28;20042;-75
2021/09/19 05:48:18;;;;;;;9.35;2.80;;;15.40;93.40;;;;;;5112188;28;20042;-75
2021/09/19 05:50:45;;;;;;;7.38;2.67;;;15.40;93.60;;;;;;5093893;28;20036;-75
2021/09/19 05:53:10;;;;;;;8.13;2.65;;;15.50;93.40;;;;;;5094074;28;20048;-76
2021/09/19 05:55:36;;;;;;;7.95;2.88;;;15.50;93.40;;;;;;5094408;28;20035;-75
2021/09/19 05:58:01;;;;;;;9.57;2.80;;;15.50;93.40;;;;;;5094045;28;20126;-76
2021/09/19 06:00:27;;;;;;;7.00;2.67;;;15.40;93.40;;;;;;5111940;28;20028;-75
2021/09/19 06:02:53;;;;;;;7.65;2.65;;;15.40;93.40;;;;;;5112096;28;20052;-77
2021/09/19 06:05:19;;;;;;;11.18;3.45;;;15.40;93.40;;;;;;5109391;28;20031;-75
2021/09/19 06:07:44;;;;;;;10.13;2.80;;;15.40;93.40;;;;;;5111928;28;20028;-75
2021/09/19 06:10:10;;;;;;;10.25;3.05;;;15.40;93.40;;;;;;5111837;28;20040;-76
2021/09/19 06:12:36;;;;;;;13.27;4.32;;;15.40;93.40;;;;;;5111992;28;20035;-75
2021/09/19 06:15:03;;;;;;;6.20;2.58;;;15.40;93.50;;;;;;5093637;28;20024;-77
2021/09/19 06:17:29;;;;;;;9.68;3.25;;;15.40;93.50;;;;;;5111844;28;20035;-76
2021/09/19 06:19:55;;;;;;;7.80;2.92;;;15.30;93.40;;;;;;5111727;28;20044;-75
2021/09/19 06:22:21;;;;;;;10.32;2.88;;;15.30;93.40;;;;;;5111650;28;20092;-75
2021/09/19 06:24:46;;;;;;;5.75;2.25;;;15.20;93.40;;;;;;5111435;28;20024;-75
2021/09/19 06:27:12;;;;;;;9.43;2.60;;;15.20;93.50;;;;;;5111283;28;20418;-75
2021/09/19 06:29:39;;;;;;;6.97;2.00;;;15.20;93.40;;;;;;5093429;28;20035;-75
2021/09/19 06:32:05;;;;;;;5.50;1.80;;;15.30;93.50;;;;;;5111460;28;20023;-77
2021/09/19 06:34:31;;;;;;;;;;;15.20;93.40;;;;;;5076578;28;20055;-77
2021/09/19 06:36:56;;;;;;;7.38;2.40;;;15.20;93.40;;;;;;5093259;28;20354;-75
2021/09/19 06:39:22;;;;;;;12.50;3.53;;;15.20;93.40;;;;;;5111658;28;20524;-74
2021/09/19 06:41:51;;;;;;;8.65;2.80;;;15.10;93.40;;;;;;5076273;28;20039;-75
2021/09/19 06:44:19;;;;;;;8.57;2.60;;;15.10;93.50;;;;;;5111213;28;20039;-75
2021/09/19 06:46:45;;;;;;;7.57;2.55;;;15.10;93.50;;;;;;5111154;28;20030;-75
2021/09/19 06:49:11;;;;;;;10.43;2.95;;;15.10;93.60;;;;;;5111628;28;20296;-76
2021/09/19 06:51:37;;;;;;;9.57;2.80;;;15.10;93.60;;;;;;5111978;28;20489;-76
2021/09/19 06:54:02;;;;;;;6.63;2.75;;;15.10;93.50;;;;;;5111782;28;20510;-76
2021/09/19 06:56:28;;;;;;;8.23;2.97;;;15.20;93.50;;;;;;5093109;28;20031;-77
2021/09/19 06:58:54;;;;;;;9.70;3.60;;;15.20;93.60;;;;;;5110754;28;20063;-74
2021/09/19 07:01:22;;;;;;;8.82;3.85;;;15.20;93.50;;;;;;5110820;28;20100;-75
2021/09/19 07:03:48;;;;;;;10.70;3.60;;;15.20;93.50;;;;;;5092902;28;20072;-75
2021/09/19 07:06:14;;;;;;;12.13;4.60;;;15.30;93.50;;;;;;5075580;28;20130;-75
2021/09/19 07:08:39;;;;;;;15.18;4.47;;;15.30;93.50;;;;;;5092299;28;20116;-79
2021/09/19 07:11:05;;;;;;;11.75;4.53;;;15.30;93.40;;;;;;5092343;28;20081;-75
2021/09/19 07:13:31;;;;;;;13.00;4.15;;;15.40;93.40;;;;;;5110695;28;20505;-75
2021/09/19 07:15:57;;;;;;;10.85;4.57;;;15.50;93.40;;;;;;5092227;28;20031;-75
2021/09/19 07:18:23;;;;;;;13.52;5.45;;;15.50;93.20;;;;;;5092102;28;20030;-76
2021/09/19 07:20:52;;;;;;;10.27;4.22;;;15.50;93.00;;;;;;5092053;28;20040;-76
2021/09/19 07:23:18;;;;;;;10.13;3.47;;;15.50;93.10;;;;;;5110820;28;20484;-76
2021/09/19 07:25:43;;;;;;;14.23;3.25;;;15.70;93.30;;;;;;5110402;28;20122;-76
2021/09/19 07:28:09;;;;;;;10.30;3.22;;;15.70;93.10;;;;;;5110459;28;20035;-77
2021/09/19 07:30:35;;;;;;;7.90;2.83;;;15.90;93.00;;;;;;5109855;28;20028;-77
2021/09/19 07:33:02;;;;;;;;;;;16.00;92.90;;;;;;5110938;28;20629;-76
2021/09/19 07:35:28;;;;;;;9.80;2.78;;;16.10;92.70;;;;;;5110426;28;19908;-74
2021/09/19 07:37:53;;;;;;;;;;;16.20;92.40;;;;;;5110858;28;20031;-77
2021/09/19 07:40:20;;;;;;;7.65;2.53;;;16.20;92.30;;;;;;5110316;28;19904;-76
2021/09/19 07:42:47;;;;;;;15.02;2.70;;;16.20;92.30;;;;;;5074555;28;20027;-76
2021/09/19 07:45:13;;;;;;;11.93;2.90;;;16.30;92.20;;;;;;5109649;28;20051;-77
2021/09/19 07:47:40;;;;;;;9.25;2.70;;;16.40;92.20;;;;;;5110260;28;20020;-76
2021/09/19 07:50:07;;;;;;;10.55;3.30;;;16.50;92.00;;;;;;5110227;28;20043;-76
2021/09/19 07:52:33;;;;;;;11.73;4.18;;;16.60;91.70;;;;;;5110229;28;20143;-76
2021/09/19 07:54:59;;;;;;;10.90;3.33;;;16.60;91.50;;;;;;5091919;28;20044;-75
2021/09/19 07:57:25;;;;;;;9.38;4.00;;;16.60;91.40;;;;;;5091368;28;20040;-75
2021/09/19 07:59:53;;;;;;;13.07;3.97;;;16.50;91.30;;;;;;5109368;28;20020;-77
2021/09/19 08:02:20;;;;;;;13.55;4.45;;;16.50;91.40;;;;;;5109930;28;20023;-76
2021/09/19 08:04:46;;;;;;;9.63;4.30;;;16.70;91.50;;;;;;5109532;28;20039;-76
2021/09/19 08:07:12;;;;;;;;;;;16.80;91.30;;;;;;5109344;28;20039;-78
2021/09/19 08:09:38;;;;;;;9.00;3.80;;;17.10;91.00;;;;;;5109368;28;19911;-77
2021/09/19 08:12:05;;;;;;;11.88;3.35;;;17.10;90.70;;;;;;5091630;28;20111;-75
2021/09/19 08:14:31;;;;;;;6.90;2.90;;;17.30;90.70;;;;;;5090882;28;20474;-78
2021/09/19 08:16:57;;;;;;;10.55;3.13;;;17.40;90.80;;;;;;5109277;28;20046;-77
2021/09/19 08:19:24;;;;;;;7.15;2.28;;;17.90;91.40;;;;;;5109207;28;20050;-75
2021/09/19 08:21:50;;;;;;;4.85;2.00;;;18.90;90.90;;;;;;5109648;28;20028;-75
2021/09/19 08:24:16;;;;;;;8.02;2.13;;;20.00;90.00;;;;;;5108849;28;20111;-75
2021/09/19 08:26:42;;;;;;;;;;;20.90;87.50;;;;;;5090718;28;20110;-73
2021/09/19 08:29:09;;;;;;;7.57;1.90;;;21.80;86.10;;;;;;5108657;28;19907;-77
2021/09/19 08:31:35;;;;;;;5.15;1.63;;;22.70;83.70;;;;;;5091110;28;20038;-74
2021/09/19 08:34:02;;;;;;;5.63;1.60;;;23.40;80.60;;;;;;5109502;28;20478;-77
2021/09/19 08:36:28;;;;;;;6.82;1.45;;;24.00;77.80;;;;;;5109384;28;20034;-77
2021/09/19 08:38:54;;;;;;;4.97;1.25;;;24.60;75.80;;;;;;5091136;28;20110;-76
2021/09/19 08:41:20;;;;;;;10.55;3.22;;;25.20;72.70;;;;;;5109220;28;20573;-77
2021/09/19 08:43:47;;;;;;;10.90;1.40;;;25.60;71.40;;;;;;5108655;28;20028;-76
2021/09/19 08:46:16;;;;;;;7.30;1.60;;;25.90;70.30;;;;;;5108421;28;20403;-77
2021/09/19 08:48:42;;;;;;;5.15;1.15;;;26.30;68.50;;;;;;5108640;28;20054;-76
2021/09/19 08:51:08;;;;;;;8.60;1.42;;;26.60;66.20;;;;;;5090318;28;20058;-76
2021/09/19 08:53:34;;;;;;;5.43;1.10;;;26.90;65.80;;;;;;5108782;28;20019;-75
2021/09/19 08:56:00;;;;;;;8.02;1.20;;;27.40;64.80;;;;;;5090495;28;20028;-75
2021/09/19 08:58:26;;;;;;;5.28;1.02;;;27.60;62.60;;;;;;5107712;28;20031;-75
2021/09/19 09:00:52;;;;;;;6.55;1.20;;;27.70;61.90;;;;;;5089352;28;20035;-76
2021/09/19 09:03:23;;;;;;;7.57;1.92;;;27.90;61.70;;;;;;5108063;28;20050;-76
2021/09/19 09:05:56;;;;;;;6.85;1.30;;;28.40;60.70;;;;;;5107591;28;20509;-75
2021/09/19 09:08:23;;;;;;;7.50;1.33;;;28.70;59.60;;;;;;5072660;28;20032;-78
2021/09/19 09:10:51;;;;;;;7.00;1.25;;;29.00;59.40;;;;;;5107363;28;20034;-75
2021/09/19 09:13:20;;;;;;;7.10;1.10;;;29.30;58.40;;;;;;5107585;28;20235;-75
2021/09/19 09:15:51;;;;;;;4.43;1.38;;;29.50;57.50;;;;;;5107723;28;20035;-78
2021/09/19 09:18:34;;;;;;;5.80;1.40;;;29.70;56.70;;;;;;5089604;28;20027;-77
2021/09/19 09:21:30;;;;;;;5.90;1.23;;;30.00;56.20;;;;;;5106846;28;20037;-75
2021/09/19 09:24:00;;;;;;;6.63;1.30;;;30.20;55.60;;;;;;5107565;28;20374;-77
2021/09/19 09:26:34;;;;;;;7.00;1.63;;;30.50;55.10;;;;;;5089163;28;20506;-75
2021/09/19 09:29:18;;;;;;;7.25;1.50;;;30.80;54.30;;;;;;5107099;28;20107;-75
2021/09/19 09:31:49;;;;;;;6.22;1.45;;;30.90;53.80;;;;;;5107812;28;20023;-75
2021/09/19 09:34:23;;;;;;;6.30;1.30;;;31.10;53.30;;;;;;5107809;28;20530;-78
2021/09/19 09:37:03;;;;;;;5.70;1.27;;;31.30;52.40;;;;;;5107179;28;20028;-75
2021/09/19 09:39:36;;;;;;;4.65;1.30;;;31.40;52.20;;;;;;5089483;28;20084;-76
2021/09/19 09:42:15;;;;;;;4.93;1.02;;;31.60;51.80;;;;;;5108182;28;20023;-76
2021/09/19 09:44:43;;;;;;;7.07;2.00;;;31.70;50.60;;;;;;5107471;28;20028;-76
2021/09/19 09:47:15;;;;;;;7.82;2.22;;;31.60;50.80;;;;;;5107432;28;20035;-76
2021/09/19 09:49:51;;;;;;;8.27;1.15;;;31.50;49.90;;;;;;5107215;28;20034;-76
2021/09/19 09:52:21;;;;;;;8.85;1.42;;;31.40;50.40;;;;;;5107603;28;20029;-77
2021/09/19 09:54:51;;;;;;;5.85;1.17;;;31.10;50.10;;;;;;5107503;28;20536;-76
2021/09/19 09:57:34;;;;;;;4.65;1.27;;;31.10;49.90;;;;;;5107233;28;20020;-76
2021/09/19 10:00:04;;;;;;;4.97;1.20;;;31.30;49.80;;;;;;5107451;28;20038;-75
2021/09/19 10:02:33;;;;;;;5.40;1.40;;;31.70;49.40;;;;;;5107020;28;20027;-76
2021/09/19 10:04:59;;;;;;;7.00;1.40;;;32.00;49.10;;;;;;5106775;28;20024;-77
2021/09/19 10:07:25;;;;;;;9.52;1.30;;;32.30;48.70;;;;;;5085099;28;20095;-75
2021/09/19 10:09:52;;;;;;;5.63;1.38;;;31.70;47.50;;;;;;5086375;28;20501;-75
2021/09/19 10:12:20;;;;;;;5.90;1.40;;;30.70;47.30;;;;;;5085265;28;20024;-76
2021/09/19 10:14:51;;;;;;;6.00;1.25;;;30.30;48.30;;;;;;5086508;28;20524;-76
2021/09/19 10:17:25;;;;;;;7.10;1.20;;;30.60;48.30;;;;;;5086478;28;20056;-74
2021/09/19 10:19:51;;;;;;;5.90;1.08;;;30.40;47.50;;;;;;5086540;28;20023;-75
2021/09/19 10:22:25;;;;;;;6.20;1.17;;;29.70;47.50;;;;;;5084638;28;20045;-76
2021/09/19 10:24:51;;;;;;;8.20;2.20;;;28.90;47.90;;;;;;5084933;28;20036;-75
2021/09/19 10:27:23;;;;;;;9.52;1.67;;;28.40;48.50;;;;;;5085967;28;20119;-75
2021/09/19 10:29:59;;;;;;;7.80;1.70;;;28.20;49.40;;;;;;5086232;28;20035;-76
2021/09/19 10:32:40;;;;;;;10.73;1.75;;;27.80;49.10;;;;;;5089681;28;20470;-75
2021/09/19 10:35:25;;;;;;;5.97;1.35;;;27.60;50.20;;;;;;5090071;28;20650;-75
2021/09/19 10:38:05;;;;;;;5.93;1.38;;;28.40;50.40;;;;;;5089684;28;20027;-76
2021/09/19 10:40:39;;;;;;;5.35;1.15;;;28.90;49.30;;;;;;5089784;28;20497;-75
2021/09/19 10:43:16;;;;;;;4.57;1.67;;;29.20;48.50;;;;;;5089922;28;20055;-75
2021/09/19 10:45:45;;;;;;;8.82;1.50;;;28.60;48.50;;;;;;5089377;28;20387;-77
2021/09/19 10:48:17;;;;;;;3.60;1.10;;;28.80;49.40;;;;;;5089588;28;20072;-74
2021/09/19 10:50:47;;;;;;;5.25;1.13;;;29.70;49.00;;;;;;5088379;28;20028;-74
2021/09/19 10:53:12;;;;;;;11.30;1.58;;;30.30;47.70;;;;;;5089637;28;20052;-76
2021/09/19 10:56:00;;;;;;;4.82;1.70;;;29.80;46.90;;;;;;5089257;28;20059;-74
2021/09/19 10:58:39;;;;;;;6.03;1.73;;;29.30;47.30;;;;;;5089103;28;20336;-74
2021/09/19 11:01:17;;;;;;;8.88;1.30;;;29.50;48.10;;;;;;5089434;28;20615;-75
2021/09/19 11:03:44;;;;;;;5.90;1.05;;;30.00;47.80;;;;;;5087734;28;20039;-75
2021/09/19 11:06:37;;;;;;;6.82;1.20;;;30.30;47.20;;;;;;5096739;28;20489;-75
2021/09/19 11:09:21;;;;;;;7.78;1.00;;;29.90;46.70;;;;;;5106515;28;20028;-75
2021/09/19 11:12:14;;;;;;;6.53;1.13;;;29.10;46.40;;;;;;5109203;28;20019;-75
2021/09/19 11:14:59;;;;;;;3.90;1.20;;;28.20;46.80;;;;;;5109430;28;20022;-76
2021/09/19 11:17:28;;;;;;;4.25;1.00;;;28.10;47.90;;;;;;5109303;28;20031;-76
2021/09/19 11:20:21;;;;;;;7.82;1.30;;;28.80;48.50;;;;;;5108871;28;20035;-75
2021/09/19 11:22:57;;;;;;;5.15;1.20;;;29.80;47.50;;;;;;5109389;28;20023;-75
2021/09/19 11:25:23;;;;;;;4.68;0.93;;;30.00;46.10;;;;;;5091031;28;20035;-76
2021/09/19 11:27:52;;;;;;;6.53;1.38;;;29.60;45.60;;;;;;5109191;28;20019;-75
2021/09/19 11:30:21;;;;;;;7.60;1.10;;;28.70;45.50;;;;;;5109381;28;20032;-75
2021/09/19 11:32:47;;;;;;;11.70;2.50;;;28.00;46.00;;;;;;5109511;28;20047;-75
2021/09/19 11:35:13;;;;;;;5.20;1.10;;;27.40;46.60;;;;;;5109017;28;20073;-75
2021/09/19 11:37:39;;;;;;;6.93;0.90;;;26.90;47.20;;;;;;5090507;28;20034;-75
2021/09/19 11:40:09;;;;;;;5.00;1.10;;;26.40;47.30;;;;;;5108862;28;20534;-75
2021/09/19 11:42:36;;;;;;;6.40;1.10;;;25.80;47.70;;;;;;5089680;28;20028;-75
2021/09/19 11:45:10;;;;;;;3.70;0.98;;;25.30;48.20;;;;;;5109157;28;20032;-75
2021/09/19 11:47:39;;;;;;;5.30;1.55;;;25.30;49.10;;;;;;5109353;28;20478;-78
2021/09/19 11:50:07;;;;;;;6.47;1.33;;;25.60;49.60;;;;;;5090980;28;20020;-76
2021/09/19 11:52:33;;;;;;;5.82;1.20;;;26.50;49.90;;;;;;5090064;28;20032;-79
2021/09/19 11:54:58;;;;;;;4.32;1.10;;;27.80;49.60;;;;;;5090095;28;20084;-77
2021/09/19 11:57:24;;;;;;;3.50;1.02;;;28.80;48.40;;;;;;5108467;28;20032;-76
2021/09/19 11:59:50;;;;;;;5.85;1.63;;;28.70;47.30;;;;;;5108628;28;20165;-78
2021/09/19 12:02:17;;;;;;;8.82;3.22;;;28.80;47.70;;;;;;5108583;28;20456;-75
2021/09/19 12:04:44;;;;;;;8.23;2.53;;;29.40;47.80;;;;;;5108526;28;20051;-74
2021/09/19 12:07:12;;;;;;;7.05;2.08;;;30.20;47.50;;;;;;5107733;28;20123;-78
2021/09/19 12:09:52;;;;;;;6.97;1.70;;;31.00;47.20;;;;;;5107992;28;20289;-76
2021/09/19 12:12:19;;;;;;;5.93;1.23;;;31.50;46.70;;;;;;5108417;28;20030;-77
2021/09/19 12:14:50;;;;;;;4.70;1.50;;;31.80;45.90;;;;;;5108271;28;20394;-77
2021/09/19 12:17:21;;;;;;;3.03;0.80;;;31.40;45.10;;;;;;5108583;28;20274;-75
2021/09/19 12:19:48;;;;;;;9.15;2.88;;;31.20;44.90;;;;;;5108377;28;20150;-76
2021/09/19 12:22:19;;;;;;;4.80;1.15;;;31.30;44.90;;;;;;5108309;28;20059;-75
2021/09/19 12:24:50;;;;;;;5.63;1.15;;;31.70;44.70;;;;;;5108318;28;20096;-76
2021/09/19 12:27:22;;;;;;;6.40;1.63;;;31.90;43.80;;;;;;5108119;28;20486;-76
2021/09/19 12:30:07;;;;;;;6.20;1.05;;;31.30;42.90;;;;;;5107896;28;20030;-76
2021/09/19 12:32:54;;;;;;;3.78;1.00;;;30.10;43.10;;;;;;5107382;28;20084;-76
2021/09/19 12:35:24;;;;;;;3.88;0.95;;;29.60;44.60;;;;;;5107880;28;20020;-78
2021/09/19 12:37:50;;;;;;;4.90;1.42;;;29.80;44.70;;;;;;5107820;28;20088;-76
2021/09/19 12:40:20;;;;;;;6.57;1.38;;;30.10;44.80;;;;;;5108065;28;20042;-75
2021/09/19 12:42:47;;;;;;;5.22;1.13;;;30.30;44.60;;;;;;5108165;28;20050;-75
2021/09/19 12:45:15;;;;;;;4.38;1.13;;;30.00;44.00;;;;;;5089468;28;20027;-77
2021/09/19 12:47:41;;;;;;;4.90;0.90;;;29.30;44.00;;;;;;5089116;28;20034;-76
2021/09/19 12:50:13;;;;;;;8.75;1.30;;;28.50;44.30;;;;;;5089688;28;20016;-76
2021/09/19 12:52:40;;;;;;;4.32;1.30;;;27.70;44.70;;;;;;5089518;28;20055;-76